Time;durP1;ratioP1;P1;durP2;ratioP2;P2;SDS_P1;SDS_P2;PMS_P1;PMS_P2;Temp;Humidity;BMP_temperature;BMP_pressure;BME280_temperature;BME280_humidity;BME280_pressure;Samples;Min_cycle;Max_cycle;Signal;HPM_P1;HPM_P2
2021/01/20 00:02:41;;;;;;;6.05;2.05;;;7.80;99.90;;;;;;10378459;28;20053;-53
2021/01/20 00:08:02;;;;;;;3.05;1.92;;;7.70;99.90;;;;;;10361190;28;20044;-54
2021/01/20 00:13:23;;;;;;;4.57;2.42;;;7.70;99.90;;;;;;10359173;28;20810;-53
2021/01/20 00:18:44;;;;;;;5.78;1.65;;;7.70;99.90;;;;;;10359681;28;20045;-53
2021/01/20 00:24:06;;;;;;;6.15;1.70;;;7.70;99.90;;;;;;10360998;28;20041;-53
2021/01/20 00:29:26;;;;;;;5.82;1.60;;;7.70;99.90;;;;;;10369176;28;20120;-53
2021/01/20 00:34:47;;;;;;;5.07;1.83;;;7.70;99.90;;;;;;10368873;28;20041;-53
2021/01/20 00:40:09;;;;;;;4.38;1.98;;;7.70;99.90;;;;;;10363340;28;20423;-53
2021/01/20 00:45:30;;;;;;;4.18;1.83;;;7.70;99.90;;;;;;10364821;28;20069;-53
2021/01/20 00:50:54;;;;;;;7.43;2.15;;;7.70;99.90;;;;;;10362970;28;20119;-53
2021/01/20 00:56:15;;;;;;;5.85;1.73;;;7.60;99.90;;;;;;10365435;28;20037;-54
2021/01/20 01:01:36;;;;;;;4.93;2.22;;;7.60;99.90;;;;;;10361533;28;20046;-53
2021/01/20 01:06:57;;;;;;;7.93;2.08;;;7.60;99.90;;;;;;10366892;28;20038;-53
2021/01/20 01:12:18;;;;;;;4.38;1.30;;;7.70;99.90;;;;;;10367267;28;20053;-53
2021/01/20 01:17:39;;;;;;;6.80;2.20;;;7.70;99.90;;;;;;10358825;28;20041;-53
2021/01/20 01:23:00;;;;;;;5.35;1.67;;;7.70;99.90;;;;;;10362445;28;20057;-53
2021/01/20 01:28:21;;;;;;;6.82;1.70;;;7.70;99.90;;;;;;10361496;28;20038;-53
2021/01/20 01:33:42;;;;;;;3.88;1.77;;;7.70;99.90;;;;;;10362411;28;20037;-53
2021/01/20 01:39:03;;;;;;;3.83;2.50;;;7.70;99.90;;;;;;10363429;28;20037;-53
2021/01/20 01:44:24;;;;;;;6.75;2.45;;;7.70;99.90;;;;;;10360886;28;20836;-53
2021/01/20 01:49:45;;;;;;;6.22;1.48;;;7.60;99.90;;;;;;10359777;28;20071;-53
2021/01/20 01:55:08;;;;;;;4.78;1.92;;;7.60;99.90;;;;;;10361607;28;20034;-53
2021/01/20 02:00:30;;;;;;;3.42;1.67;;;7.70;99.90;;;;;;10360871;28;20041;-53
2021/01/20 02:05:50;;;;;;;5.32;1.83;;;7.60;99.90;;;;;;10361923;28;20042;-53
2021/01/20 02:11:43;;;;;;;8.82;2.42;;;7.60;99.90;;;;;;10361597;28;20034;-53
2021/01/20 02:17:19;;;;;;;7.93;2.13;;;7.60;99.90;;;;;;10359440;28;20694;-53
2021/01/20 02:22:44;;;;;;;5.35;2.83;;;7.50;99.90;;;;;;10361403;28;20045;-53
2021/01/20 02:28:15;;;;;;;6.45;2.13;;;7.50;99.90;;;;;;10357193;28;20037;-53
2021/01/20 02:33:38;;;;;;;4.82;2.22;;;7.40;99.90;;;;;;10365218;28;20517;-53
2021/01/20 02:39:00;;;;;;;5.50;2.88;;;7.40;99.90;;;;;;10368581;28;20045;-53
2021/01/20 02:44:21;;;;;;;4.32;2.47;;;7.40;99.90;;;;;;10368891;28;20039;-53
2021/01/20 02:49:42;;;;;;;9.10;3.03;;;7.40;99.90;;;;;;10366434;28;20050;-53
2021/01/20 02:55:04;;;;;;;10.95;3.28;;;7.40;99.90;;;;;;10371079;28;20045;-53
2021/01/20 03:00:27;;;;;;;6.53;2.40;;;7.40;99.90;;;;;;10368894;28;20566;-53
2021/01/20 03:05:49;;;;;;;9.20;2.83;;;7.40;99.90;;;;;;10366056;28;20041;-53
2021/01/20 03:11:11;;;;;;;7.47;4.03;;;7.60;99.90;;;;;;10371193;28;20554;-53
2021/01/20 03:16:32;;;;;;;11.43;2.50;;;7.60;99.90;;;;;;10371295;28;20049;-53
2021/01/20 03:21:53;;;;;;;4.60;2.08;;;7.60;99.90;;;;;;10366424;28;20045;-53
2021/01/20 03:27:13;;;;;;;4.10;1.60;;;7.80;99.90;;;;;;10369504;28;20662;-53
2021/01/20 03:32:34;;;;;;;4.75;2.13;;;7.80;99.90;;;;;;10377985;28;20452;-52
2021/01/20 03:37:55;;;;;;;4.70;1.33;;;7.70;99.90;;;;;;10371440;28;20042;-52
2021/01/20 03:43:16;;;;;;;6.30;3.00;;;7.80;99.90;;;;;;10368862;28;20049;-53
2021/01/20 03:48:37;;;;;;;6.03;1.95;;;7.70;99.90;;;;;;10367863;28;20069;-53
2021/01/20 03:54:00;;;;;;;5.38;1.83;;;7.70;99.90;;;;;;10365974;28;20060;-53
2021/01/20 03:59:21;;;;;;;3.28;1.77;;;7.70;99.90;;;;;;10364931;28;20041;-53
2021/01/20 04:04:42;;;;;;;4.32;2.15;;;7.70;99.90;;;;;;10366797;28;20080;-53
2021/01/20 04:10:07;;;;;;;6.38;2.05;;;7.90;99.90;;;;;;10363564;28;20108;-53
2021/01/20 04:15:28;;;;;;;2.95;1.45;;;7.80;99.90;;;;;;10366678;28;20077;-53
2021/01/20 04:20:49;;;;;;;4.80;2.22;;;7.80;99.90;;;;;;10366253;28;20061;-53
2021/01/20 04:26:10;;;;;;;5.35;2.13;;;7.80;99.90;;;;;;10360383;28;20060;-53
2021/01/20 04:31:32;;;;;;;4.10;2.20;;;7.80;99.90;;;;;;10364690;28;20089;-53
2021/01/20 04:36:53;;;;;;;5.15;1.98;;;7.70;99.90;;;;;;10369750;28;20037;-53
2021/01/20 04:42:14;;;;;;;4.13;1.98;;;7.70;99.90;;;;;;10363074;28;20041;-53
2021/01/20 04:47:36;;;;;;;10.45;1.50;;;7.70;99.90;;;;;;10363987;28;20053;-53
2021/01/20 04:53:01;;;;;;;6.72;2.08;;;7.90;99.90;;;;;;10363929;28;20029;-53
2021/01/20 04:58:22;;;;;;;5.55;2.30;;;7.90;99.90;;;;;;10360176;28;20173;-53
2021/01/20 05:03:43;;;;;;;6.30;2.50;;;7.90;99.90;;;;;;10362635;28;20103;-52
2021/01/20 05:09:05;;;;;;;5.85;1.85;;;7.90;99.90;;;;;;10361940;28;20570;-53
2021/01/20 05:14:25;;;;;;;2.55;1.30;;;8.10;99.90;;;;;;10362020;28;20096;-53
2021/01/20 05:19:46;;;;;;;7.53;2.15;;;8.10;99.90;;;;;;10365995;28;20056;-53
2021/01/20 05:25:08;;;;;;;3.83;1.80;;;8.10;99.90;;;;;;10362665;28;20042;-53
2021/01/20 05:30:55;;;;;;;4.13;1.73;;;8.20;99.90;;;;;;10365046;28;20089;-53
2021/01/20 05:36:16;;;;;;;12.82;1.75;;;8.30;99.90;;;;;;10361407;28;20038;-53
2021/01/20 05:41:37;;;;;;;3.60;1.40;;;8.40;99.90;;;;;;10359341;28;20030;-53
2021/01/20 05:47:05;;;;;;;4.15;1.13;;;8.40;99.90;;;;;;10363091;28;20483;-53
2021/01/20 05:52:26;;;;;;;8.90;1.30;;;8.40;99.90;;;;;;10358623;28;20057;-53
2021/01/20 05:57:51;;;;;;;3.15;1.10;;;8.50;99.90;;;;;;10360647;28;20041;-53
2021/01/20 06:03:12;;;;;;;4.53;1.55;;;8.40;99.90;;;;;;10360704;28;20118;-53
2021/01/20 06:08:35;;;;;;;3.75;1.23;;;8.50;99.90;;;;;;10365580;28;20466;-53
2021/01/20 06:13:56;;;;;;;3.85;1.20;;;8.50;99.90;;;;;;10373136;28;20037;-53
2021/01/20 06:19:20;;;;;;;2.67;1.23;;;8.60;99.90;;;;;;10368315;28;20062;-53
2021/01/20 06:24:50;;;;;;;5.88;1.02;;;8.60;99.90;;;;;;10366677;28;20045;-53
2021/01/20 06:30:38;;;;;;;3.38;1.20;;;8.60;99.90;;;;;;10368560;28;20071;-53
2021/01/20 06:35:59;;;;;;;2.38;0.93;;;8.60;99.90;;;;;;10371874;28;20510;-53
2021/01/20 06:41:40;;;;;;;3.40;1.17;;;8.50;99.90;;;;;;10368638;28;20038;-53
2021/01/20 06:47:03;;;;;;;1.85;0.93;;;8.50;99.90;;;;;;10372444;28;20064;-53
2021/01/20 06:52:24;;;;;;;2.42;1.10;;;8.50;99.90;;;;;;10369635;28;20111;-53
2021/01/20 06:57:45;;;;;;;2.33;1.10;;;8.50;99.90;;;;;;10369026;28;20052;-53
2021/01/20 07:03:06;;;;;;;3.03;0.95;;;8.50;99.90;;;;;;10367972;28;20092;-53
2021/01/20 07:08:53;;;;;;;4.47;1.48;;;8.40;99.90;;;;;;10366050;28;20085;-53
2021/01/20 07:14:33;;;;;;;1.65;0.80;;;8.40;99.90;;;;;;10373455;28;20041;-53
2021/01/20 07:19:55;;;;;;;2.55;1.05;;;8.50;99.90;;;;;;10363389;28;20094;-53
2021/01/20 07:25:17;;;;;;;3.75;1.85;;;8.50;99.90;;;;;;10372046;28;20180;-53
2021/01/20 07:30:37;;;;;;;2.55;0.95;;;8.50;99.90;;;;;;10362780;28;20048;-53
2021/01/20 07:36:12;;;;;;;2.38;0.73;;;8.50;99.90;;;;;;10361551;28;20037;-53
2021/01/20 07:41:33;;;;;;;2.88;1.20;;;8.50;99.90;;;;;;10383968;28;20049;-53
2021/01/20 07:47:05;;;;;;;3.38;1.50;;;8.50;99.90;;;;;;10365009;28;20104;-53
2021/01/20 07:52:26;;;;;;;1.67;0.85;;;8.50;99.90;;;;;;10364460;28;20077;-53
2021/01/20 07:57:55;;;;;;;6.68;1.10;;;8.50;99.90;;;;;;10362099;28;20040;-53
2021/01/20 08:03:32;;;;;;;5.05;0.95;;;8.60;99.90;;;;;;10373899;28;20552;-53
2021/01/20 08:08:55;;;;;;;3.17;0.95;;;8.60;99.90;;;;;;10384440;28;20493;-53
2021/01/20 08:14:17;;;;;;;3.67;1.00;;;8.60;99.90;;;;;;10363525;28;20058;-52
2021/01/20 08:19:40;;;;;;;1.65;0.80;;;8.60;99.90;;;;;;10363743;28;20033;-53
2021/01/20 08:25:01;;;;;;;3.17;1.00;;;8.60;99.90;;;;;;10359597;28;20080;-52
2021/01/20 08:30:29;;;;;;;1.88;0.90;;;8.60;99.90;;;;;;10363426;28;20042;-52
2021/01/20 08:35:57;;;;;;;1.60;0.70;;;8.70;99.90;;;;;;10364911;28;20136;-53
2021/01/20 08:41:18;;;;;;;1.98;0.82;;;8.60;99.90;;;;;;10364897;28;20038;-53
2021/01/20 08:46:39;;;;;;;1.77;0.80;;;8.60;99.90;;;;;;10362741;28;20167;-53
2021/01/20 08:52:00;;;;;;;1.08;0.60;;;8.70;99.90;;;;;;10371146;28;20489;-53
2021/01/20 08:57:22;;;;;;;1.17;0.55;;;8.60;99.90;;;;;;10361612;28;20065;-53
2021/01/20 09:02:43;;;;;;;3.13;1.00;;;8.60;99.90;;;;;;10361455;28;20046;-53
2021/01/20 09:08:04;;;;;;;2.05;0.90;;;8.60;99.90;;;;;;10361501;28;20045;-53
2021/01/20 09:13:26;;;;;;;1.38;0.60;;;8.70;99.90;;;;;;10365849;28;20493;-53
2021/01/20 09:18:47;;;;;;;2.75;0.63;;;8.80;99.90;;;;;;10365417;28;20057;-53
2021/01/20 09:24:08;;;;;;;1.77;0.60;;;8.80;99.90;;;;;;10362449;28;20038;-53
2021/01/20 09:29:29;;;;;;;1.05;0.40;;;8.80;99.90;;;;;;10361434;28;20073;-53
2021/01/20 09:34:50;;;;;;;1.77;0.40;;;8.90;99.90;;;;;;10361525;28;20638;-53
2021/01/20 09:40:14;;;;;;;1.23;0.50;;;8.90;99.90;;;;;;10361006;28;20041;-53
2021/01/20 09:45:35;;;;;;;2.95;0.68;;;8.90;99.90;;;;;;10370687;28;20038;-53
2021/01/20 09:50:56;;;;;;;1.17;0.30;;;8.90;99.90;;;;;;10369814;28;20209;-53
2021/01/20 09:56:17;;;;;;;1.38;0.55;;;8.90;99.90;;;;;;10371343;28;20041;-53
2021/01/20 10:01:38;;;;;;;1.95;0.57;;;8.90;99.90;;;;;;10370028;28;20136;-53
2021/01/20 10:06:59;;;;;;;1.25;0.52;;;9.00;99.90;;;;;;10369351;28;20033;-53
2021/01/20 10:12:20;;;;;;;1.98;0.47;;;9.10;99.90;;;;;;10370221;28;20044;-52
2021/01/20 10:17:41;;;;;;;2.30;0.73;;;9.20;99.90;;;;;;10368122;28;20037;-52
2021/01/20 10:23:02;;;;;;;1.35;0.40;;;9.20;99.90;;;;;;10365700;28;20120;-53
2021/01/20 10:28:23;;;;;;;1.67;0.50;;;9.20;99.90;;;;;;10367850;28;20505;-52
2021/01/20 10:33:44;;;;;;;1.50;0.30;;;9.30;99.90;;;;;;10366644;28;20103;-53
2021/01/20 10:39:07;;;;;;;3.08;0.57;;;9.30;99.90;;;;;;10367952;28;20061;-53
2021/01/20 10:44:28;;;;;;;3.22;0.38;;;9.40;99.90;;;;;;10366704;28;20781;-53
2021/01/20 10:49:49;;;;;;;0.50;0.25;;;9.40;99.90;;;;;;10368239;28;20118;-52
2021/01/20 10:55:10;;;;;;;1.67;0.60;;;9.60;99.90;;;;;;10369841;28;20056;-52
2021/01/20 11:00:31;;;;;;;1.73;0.68;;;9.60;99.90;;;;;;10368293;28;20429;-52
2021/01/20 11:05:53;;;;;;;1.80;0.70;;;9.70;99.90;;;;;;10369489;28;20630;-53
2021/01/20 11:11:14;;;;;;;1.30;0.50;;;9.70;99.90;;;;;;10367737;28;20520;-53
2021/01/20 11:16:35;;;;;;;2.47;0.50;;;9.60;99.90;;;;;;10366468;28;20516;-53
2021/01/20 11:21:56;;;;;;;1.05;0.40;;;9.60;99.90;;;;;;10366913;28;20085;-52
2021/01/20 11:27:17;;;;;;;1.45;0.43;;;9.50;99.90;;;;;;10381601;28;20025;-53
2021/01/20 11:32:38;;;;;;;2.75;0.30;;;9.80;99.90;;;;;;10367270;28;20414;-52
2021/01/20 11:37:59;;;;;;;1.73;0.55;;;10.20;99.90;;;;;;10364445;28;20045;-53
2021/01/20 11:43:20;;;;;;;1.15;0.52;;;10.20;99.90;;;;;;10374699;28;20486;-53
2021/01/20 11:48:42;;;;;;;1.30;0.30;;;10.10;99.90;;;;;;10363886;28;20061;-52
2021/01/20 11:54:03;;;;;;;2.00;0.75;;;9.90;99.90;;;;;;10363599;28;20042;-52
2021/01/20 11:59:24;;;;;;;0.57;0.30;;;9.90;99.90;;;;;;10370647;28;20041;-53
2021/01/20 12:04:45;;;;;;;1.02;0.40;;;9.80;99.90;;;;;;10366317;28;20050;-53
2021/01/20 12:10:07;;;;;;;1.55;0.30;;;9.80;99.90;;;;;;10368267;28;20033;-53
2021/01/20 12:15:28;;;;;;;1.63;0.38;;;9.70;99.90;;;;;;10364394;28;20261;-53
2021/01/20 12:20:49;;;;;;;1.17;0.32;;;9.70;99.90;;;;;;10364887;28;20141;-53
2021/01/20 12:26:10;;;;;;;3.08;0.90;;;9.50;99.90;;;;;;10363159;28;20064;-52
2021/01/20 12:31:31;;;;;;;1.48;0.52;;;9.50;99.90;;;;;;10363432;28;20172;-53
2021/01/20 12:36:52;;;;;;;3.20;0.40;;;9.60;99.90;;;;;;10364879;28;20498;-53
2021/01/20 12:42:13;;;;;;;1.60;0.38;;;9.60;99.90;;;;;;10365221;28;20124;-53
2021/01/20 12:47:34;;;;;;;1.38;0.40;;;9.60;99.90;;;;;;10363617;28;20065;-52
2021/01/20 12:52:55;;;;;;;1.02;0.50;;;9.60;99.90;;;;;;10362186;28;20040;-52
2021/01/20 12:58:16;;;;;;;1.60;0.30;;;9.70;99.90;;;;;;10363878;28;20033;-52
2021/01/20 13:03:37;;;;;;;1.42;0.82;;;9.80;99.90;;;;;;10365786;28;20382;-52
2021/01/20 13:08:58;;;;;;;1.52;0.57;;;9.90;99.90;;;;;;10363327;28;20490;-52
2021/01/20 13:14:19;;;;;;;1.40;0.65;;;9.90;99.90;;;;;;10361750;28;20034;-52
2021/01/20 13:19:41;;;;;;;1.30;0.30;;;9.90;99.90;;;;;;10360246;28;20846;-52
2021/01/20 13:25:02;;;;;;;2.17;0.70;;;9.90;99.90;;;;;;10362656;28;20150;-53
2021/01/20 13:30:23;;;;;;;2.67;0.50;;;9.80;99.90;;;;;;10363435;28;20405;-52
2021/01/20 13:35:45;;;;;;;1.13;0.50;;;9.80;99.90;;;;;;10360850;28;20121;-53
2021/01/20 13:41:06;;;;;;;0.75;0.40;;;9.90;99.90;;;;;;10361290;28;20034;-52
2021/01/20 13:46:27;;;;;;;2.03;0.95;;;9.80;99.90;;;;;;10359772;28;20065;-53
2021/01/20 13:51:47;;;;;;;2.85;0.40;;;9.70;99.90;;;;;;10363625;28;20080;-52
2021/01/20 13:57:09;;;;;;;3.00;1.00;;;9.60;99.90;;;;;;10360708;28;20485;-52
2021/01/20 14:02:30;;;;;;;0.93;0.30;;;9.60;99.90;;;;;;10360936;28;20056;-52
2021/01/20 14:07:51;;;;;;;3.72;0.40;;;9.60;99.90;;;;;;10359605;28;20042;-52
2021/01/20 14:13:12;;;;;;;1.10;0.43;;;9.70;99.90;;;;;;10371187;28;20092;-52
2021/01/20 14:18:34;;;;;;;1.15;0.65;;;9.70;99.90;;;;;;10362959;28;20583;-53
2021/01/20 14:23:55;;;;;;;1.08;0.40;;;9.80;99.90;;;;;;10361765;28;20046;-53
2021/01/20 14:29:17;;;;;;;2.53;0.40;;;9.80;99.90;;;;;;10362845;28;20083;-53
2021/01/20 14:34:39;;;;;;;0.80;0.30;;;9.90;99.90;;;;;;10365751;28;20045;-53
2021/01/20 14:40:00;;;;;;;3.90;1.20;;;10.00;99.90;;;;;;10377754;28;20489;-53
2021/01/20 14:45:21;;;;;;;1.15;0.32;;;9.90;99.90;;;;;;10373151;28;20045;-53
2021/01/20 14:50:42;;;;;;;3.67;0.47;;;10.00;99.90;;;;;;10365941;28;20041;-53
2021/01/20 14:56:03;;;;;;;1.77;0.52;;;10.00;99.90;;;;;;10368032;28;20042;-53
2021/01/20 15:01:24;;;;;;;1.55;0.65;;;10.00;99.90;;;;;;10369113;28;20129;-53
2021/01/20 15:06:45;;;;;;;1.63;0.50;;;10.00;99.90;;;;;;10364799;28;20042;-53
2021/01/20 15:12:07;;;;;;;1.10;0.30;;;10.00;99.90;;;;;;10378719;28;20029;-53
2021/01/20 15:17:28;;;;;;;1.48;0.43;;;10.00;99.90;;;;;;10371024;28;20076;-53
2021/01/20 15:22:49;;;;;;;1.23;0.38;;;10.00;99.90;;;;;;10364895;28;20038;-53
2021/01/20 15:28:10;;;;;;;1.42;0.25;;;10.00;99.90;;;;;;10364416;28;20064;-53
2021/01/20 15:33:31;;;;;;;3.35;0.43;;;9.90;99.90;;;;;;10364565;28;20062;-52
2021/01/20 15:38:52;;;;;;;1.85;0.20;;;9.90;99.90;;;;;;10362174;28;20030;-53
2021/01/20 15:44:13;;;;;;;1.10;0.52;;;9.80;99.90;;;;;;10363420;28;20041;-53
2021/01/20 15:49:34;;;;;;;1.77;0.60;;;9.80;99.90;;;;;;10364305;28;20071;-53
2021/01/20 15:54:56;;;;;;;1.48;0.60;;;9.70;99.90;;;;;;10363887;28;20026;-53
2021/01/20 16:00:17;;;;;;;3.20;0.70;;;9.60;99.90;;;;;;10366748;28;20038;-53
2021/01/20 16:05:38;;;;;;;1.90;0.65;;;9.70;99.90;;;;;;10375432;28;20127;-53
2021/01/20 16:10:59;;;;;;;1.30;0.75;;;9.60;99.90;;;;;;10360629;28;20766;-53
2021/01/20 16:16:20;;;;;;;1.92;0.60;;;9.60;99.90;;;;;;10361809;28;20040;-53
2021/01/20 16:21:42;;;;;;;1.42;0.75;;;9.60;99.90;;;;;;10364571;28;20540;-53
2021/01/20 16:27:03;;;;;;;4.80;1.60;;;9.60;99.90;;;;;;10362441;28;20046;-53
2021/01/20 16:32:24;;;;;;;1.55;0.40;;;9.60;99.90;;;;;;10367745;28;20573;-53
2021/01/20 16:37:45;;;;;;;6.50;0.85;;;9.60;99.90;;;;;;10358380;28;20120;-53
2021/01/20 16:43:06;;;;;;;1.00;0.40;;;9.60;99.90;;;;;;10360994;28;20777;-53
2021/01/20 16:48:27;;;;;;;0.93;0.40;;;9.60;99.90;;;;;;10364534;28;20606;-53
2021/01/20 16:53:48;;;;;;;1.75;0.60;;;9.60;99.90;;;;;;10360619;28;20056;-53
2021/01/20 16:59:09;;;;;;;0.85;0.50;;;9.50;99.90;;;;;;10360749;28;20036;-53
2021/01/20 17:04:30;;;;;;;1.48;0.40;;;9.60;99.90;;;;;;10366624;28;20076;-53
2021/01/20 17:09:51;;;;;;;1.88;0.55;;;9.60;99.90;;;;;;10362010;28;20387;-53
2021/01/20 17:15:13;;;;;;;2.97;1.20;;;9.50;99.90;;;;;;10365937;28;20041;-53
2021/01/20 17:20:34;;;;;;;1.00;0.60;;;9.60;99.90;;;;;;10371334;28;20084;-53
2021/01/20 17:25:55;;;;;;;1.02;0.35;;;9.60;99.90;;;;;;10359909;28;20065;-53
2021/01/20 17:31:16;;;;;;;1.65;0.63;;;9.50;99.90;;;;;;10364006;28;20045;-53
2021/01/20 17:36:37;;;;;;;1.15;0.40;;;9.60;99.90;;;;;;10360577;28;20650;-53
2021/01/20 17:41:58;;;;;;;4.50;0.70;;;9.60;99.90;;;;;;10365777;28;20034;-52
2021/01/20 17:47:19;;;;;;;2.00;0.52;;;9.60;99.90;;;;;;10362312;28;20048;-53
2021/01/20 17:52:40;;;;;;;3.50;0.63;;;9.60;99.90;;;;;;10358182;28;20444;-53
2021/01/20 17:58:02;;;;;;;2.08;0.40;;;9.60;99.90;;;;;;10355837;28;20491;-53
2021/01/20 18:03:23;;;;;;;0.77;0.38;;;9.70;99.90;;;;;;10362470;28;20037;-53
2021/01/20 18:08:45;;;;;;;2.88;1.20;;;9.80;99.90;;;;;;10366050;28;20131;-53
2021/01/20 18:14:07;;;;;;;0.88;0.38;;;9.80;99.90;;;;;;10366467;28;20045;-53
2021/01/20 18:19:28;;;;;;;2.35;0.60;;;9.90;99.90;;;;;;10366992;28;20049;-53
2021/01/20 18:24:49;;;;;;;1.15;0.60;;;9.90;99.90;;;;;;10364721;28;20080;-53
2021/01/20 18:30:11;;;;;;;1.85;0.80;;;10.00;99.90;;;;;;10362670;28;20508;-53
2021/01/20 18:35:32;;;;;;;2.47;1.10;;;10.00;99.90;;;;;;10362871;28;20065;-52
2021/01/20 18:40:53;;;;;;;1.98;0.60;;;10.10;99.90;;;;;;10364041;28;20034;-53
2021/01/20 18:46:13;;;;;;;3.00;0.73;;;10.10;99.90;;;;;;10367839;28;20084;-53
2021/01/20 18:51:34;;;;;;;1.33;0.38;;;10.20;99.90;;;;;;10363857;28;20061;-53
2021/01/20 18:56:55;;;;;;;1.65;0.80;;;10.10;99.90;;;;;;10359937;28;20034;-52
2021/01/20 19:02:16;;;;;;;0.22;0.10;;;10.20;99.90;;;;;;10362640;28;20065;-52
2021/01/20 19:07:37;;;;;;;1.98;1.00;;;10.20;99.90;;;;;;10365973;28;20754;-53
2021/01/20 19:12:58;;;;;;;1.30;0.50;;;10.20;99.90;;;;;;10365500;28;21698;-53
2021/01/20 19:18:20;;;;;;;1.88;0.57;;;10.30;99.90;;;;;;10366163;28;20041;-53
2021/01/20 19:23:41;;;;;;;1.00;0.52;;;10.20;99.90;;;;;;10366331;28;20034;-52
2021/01/20 19:29:02;;;;;;;1.88;0.82;;;10.20;99.90;;;;;;10376983;28;20060;-53
2021/01/20 19:34:23;;;;;;;1.17;0.60;;;10.30;99.90;;;;;;10366397;28;20053;-53
2021/01/20 19:39:44;;;;;;;3.08;0.60;;;10.40;99.90;;;;;;10362937;28;20287;-52
2021/01/20 19:45:06;;;;;;;1.55;0.70;;;10.40;99.90;;;;;;10358434;28;20148;-52
2021/01/20 19:50:27;;;;;;;1.88;0.40;;;10.40;99.90;;;;;;10359603;28;20056;-52
2021/01/20 19:55:48;;;;;;;2.33;0.70;;;10.50;99.90;;;;;;10361134;28;20030;-53
2021/01/20 20:01:09;;;;;;;2.75;1.05;;;10.70;99.90;;;;;;10360363;28;20042;-53
2021/01/20 20:06:29;;;;;;;2.53;0.60;;;10.60;99.90;;;;;;10363887;28;20049;-53
2021/01/20 20:11:50;;;;;;;0.65;0.28;;;10.60;99.90;;;;;;10359639;28;20034;-53
2021/01/20 20:17:12;;;;;;;2.13;0.93;;;10.60;99.90;;;;;;10358437;28;20042;-53
2021/01/20 20:22:35;;;;;;;1.40;0.63;;;10.70;99.90;;;;;;10360513;28;20033;-53
2021/01/20 20:27:57;;;;;;;2.67;0.98;;;10.80;99.90;;;;;;10371191;28;20038;-52
2021/01/20 20:33:20;;;;;;;1.35;0.40;;;10.90;99.90;;;;;;10360010;28;20181;-52
2021/01/20 20:38:41;;;;;;;2.33;0.70;;;11.00;99.90;;;;;;10364150;28;20038;-52
2021/01/20 20:44:05;;;;;;;2.47;0.47;;;11.00;99.90;;;;;;10358373;28;20038;-53
2021/01/20 20:49:25;;;;;;;2.92;0.85;;;11.00;99.90;;;;;;10362785;28;20041;-52
2021/01/20 20:54:46;;;;;;;1.20;0.55;;;11.00;99.90;;;;;;10359000;28;20041;-53
2021/01/20 21:00:08;;;;;;;0.80;0.40;;;11.00;99.90;;;;;;10357318;28;20037;-53
2021/01/20 21:05:29;;;;;;;2.90;0.60;;;10.90;99.90;;;;;;10357775;28;20041;-53
2021/01/20 21:10:50;;;;;;;1.02;0.35;;;10.80;99.90;;;;;;10356920;28;20044;-53
2021/01/20 21:16:11;;;;;;;4.00;0.80;;;10.80;99.90;;;;;;10357613;28;20629;-53
2021/01/20 21:21:32;;;;;;;1.65;0.77;;;10.70;99.90;;;;;;10356845;28;20138;-53
2021/01/20 21:26:53;;;;;;;2.15;0.88;;;10.60;99.90;;;;;;10357379;28;20049;-53
2021/01/20 21:32:14;;;;;;;3.67;1.05;;;10.60;99.90;;;;;;10359459;28;20049;-53
2021/01/20 21:37:36;;;;;;;2.05;0.57;;;10.60;99.90;;;;;;10359836;28;20042;-52
2021/01/20 21:42:58;;;;;;;1.63;0.57;;;10.50;99.90;;;;;;10362456;28;20037;-52
2021/01/20 21:48:19;;;;;;;2.03;0.68;;;10.50;99.90;;;;;;10362863;28;20045;-52
2021/01/20 21:53:40;;;;;;;2.10;0.57;;;10.40;99.90;;;;;;10368204;28;20088;-52
2021/01/20 21:59:00;;;;;;;2.03;0.57;;;10.40;99.90;;;;;;10380273;28;20041;-53
2021/01/20 22:04:22;;;;;;;2.72;0.73;;;10.40;99.90;;;;;;10364908;28;20037;-52
2021/01/20 22:09:43;;;;;;;1.10;0.45;;;10.40;99.90;;;;;;10363106;28;20056;-52
2021/01/20 22:15:08;;;;;;;1.48;0.55;;;10.40;99.90;;;;;;10365417;28;20037;-52
2021/01/20 22:20:29;;;;;;;1.63;0.60;;;10.30;99.90;;;;;;10378699;28;20045;-52
2021/01/20 22:25:50;;;;;;;1.27;0.40;;;10.30;99.90;;;;;;10362784;28;20046;-52
2021/01/20 22:31:11;;;;;;;1.33;0.50;;;10.20;99.90;;;;;;10365347;28;20038;-53
2021/01/20 22:36:32;;;;;;;3.80;0.95;;;10.20;99.90;;;;;;10363275;28;20048;-52
2021/01/20 22:41:53;;;;;;;1.08;0.63;;;10.20;99.90;;;;;;10366258;28;20133;-53
2021/01/20 22:47:14;;;;;;;1.15;0.47;;;10.20;99.90;;;;;;10367114;28;20046;-52
2021/01/20 22:52:35;;;;;;;2.80;0.50;;;10.30;99.90;;;;;;10368237;28;20047;-53
2021/01/20 22:57:56;;;;;;;1.48;0.40;;;10.30;99.90;;;;;;10369655;28;20022;-52
2021/01/20 23:03:17;;;;;;;2.00;0.40;;;10.20;99.90;;;;;;10368508;28;20782;-52
2021/01/20 23:08:38;;;;;;;1.10;0.40;;;10.30;99.90;;;;;;10371628;28;20046;-52
2021/01/20 23:13:59;;;;;;;1.42;0.68;;;10.30;99.90;;;;;;10369353;28;20041;-52
2021/01/20 23:19:20;;;;;;;2.30;0.98;;;10.20;99.90;;;;;;10369818;28;20079;-53
2021/01/20 23:24:41;;;;;;;2.05;0.80;;;10.20;99.90;;;;;;10367816;28;20037;-53
2021/01/20 23:30:02;;;;;;;0.52;0.20;;;10.30;99.90;;;;;;10366355;28;20030;-53
2021/01/20 23:35:23;;;;;;;1.33;0.40;;;10.50;99.90;;;;;;10368300;28;20038;-52
2021/01/20 23:40:44;;;;;;;0.82;0.28;;;10.60;99.90;;;;;;10367016;28;20069;-52
2021/01/20 23:46:05;;;;;;;1.35;0.43;;;10.70;99.90;;;;;;10363709;28;20068;-52
2021/01/20 23:51:26;;;;;;;1.38;0.95;;;10.70;99.90;;;;;;10365683;28;20052;-52
2021/01/20 23:56:47;;;;;;;3.20;0.30;;;10.80;99.90;;;;;;10361240;28;20033;-53
